sensor_id;sensor_type;location;lat;lon;timestamp;pressure;altitude;pressure_sealevel;temperature;humidity
8286;BME280;4181;43.416;24.598;2024-01-11T00:02:22;101564.16;;;-4.95;100.00
8286;BME280;4181;43.416;24.598;2024-01-11T00:04:48;101565.38;;;-4.77;100.00
8286;BME280;4181;43.416;24.598;2024-01-11T00:07:13;101562.63;;;-4.64;100.00
8286;BME280;4181;43.416;24.598;2024-01-11T00:09:41;101553.78;;;-4.54;100.00
8286;BME280;4181;43.416;24.598;2024-01-11T00:12:07;101552.22;;;-4.45;100.00
8286;BME280;4181;43.416;24.598;2024-01-11T00:14:32;101548.47;;;-4.32;100.00
8286;BME280;4181;43.416;24.598;2024-01-11T00:16:58;101541.22;;;-4.41;100.00
8286;BME280;4181;43.416;24.598;2024-01-11T00:19:23;101565.91;;;-4.28;100.00
8286;BME280;4181;43.416;24.598;2024-01-11T00:21:49;101558.66;;;-4.26;100.00
8286;BME280;4181;43.416;24.598;2024-01-11T00:26:56;101568.09;;;-4.22;100.00
8286;BME280;4181;43.416;24.598;2024-01-11T00:29:22;101556.81;;;-4.25;100.00
8286;BME280;4181;43.416;24.598;2024-01-11T00:31:47;101556.47;;;-4.32;100.00
8286;BME280;4181;43.416;24.598;2024-01-11T00:34:13;101548.34;;;-4.41;100.00
8286;BME280;4181;43.416;24.598;2024-01-11T00:36:38;101545.34;;;-4.48;100.00
8286;BME280;4181;43.416;24.598;2024-01-11T00:39:04;101531.91;;;-4.46;100.00
8286;BME280;4181;43.416;24.598;2024-01-11T00:41:29;101535.66;;;-4.60;100.00
8286;BME280;4181;43.416;24.598;2024-01-11T00:43:54;101539.00;;;-4.80;100.00
8286;BME280;4181;43.416;24.598;2024-01-11T00:46:20;101533.19;;;-4.74;100.00
8286;BME280;4181;43.416;24.598;2024-01-11T00:48:45;101530.31;;;-4.71;100.00
8286;BME280;4181;43.416;24.598;2024-01-11T00:51:11;101529.84;;;-4.76;100.00
8286;BME280;4181;43.416;24.598;2024-01-11T00:53:36;101525.00;;;-4.71;100.00
8286;BME280;4181;43.416;24.598;2024-01-11T00:56:04;101524.78;;;-5.59;100.00
8286;BME280;4181;43.416;24.598;2024-01-11T00:58:30;101519.63;;;-5.84;100.00
8286;BME280;4181;43.416;24.598;2024-01-11T01:00:55;101536.09;;;-5.68;100.00
8286;BME280;4181;43.416;24.598;2024-01-11T01:03:21;101512.66;;;-5.63;100.00
8286;BME280;4181;43.416;24.598;2024-01-11T01:05:47;101522.44;;;-5.64;100.00
8286;BME280;4181;43.416;24.598;2024-01-11T01:08:13;101523.03;;;-5.37;100.00
8286;BME280;4181;43.416;24.598;2024-01-11T01:10:38;101517.09;;;-5.40;100.00
8286;BME280;4181;43.416;24.598;2024-01-11T01:13:04;101513.75;;;-5.31;100.00
8286;BME280;4181;43.416;24.598;2024-01-11T01:15:30;101520.22;;;-5.11;100.00
8286;BME280;4181;43.416;24.598;2024-01-11T01:17:56;101508.94;;;-5.15;100.00
8286;BME280;4181;43.416;24.598;2024-01-11T01:20:22;101499.53;;;-5.08;100.00
8286;BME280;4181;43.416;24.598;2024-01-11T01:22:47;101495.19;;;-4.98;100.00
8286;BME280;4181;43.416;24.598;2024-01-11T01:25:13;101499.06;;;-5.02;100.00
8286;BME280;4181;43.416;24.598;2024-01-11T01:27:38;101479.22;;;-4.98;100.00
8286;BME280;4181;43.416;24.598;2024-01-11T01:30:04;101491.81;;;-5.11;100.00
8286;BME280;4181;43.416;24.598;2024-01-11T01:32:36;101497.19;;;-5.24;100.00
8286;BME280;4181;43.416;24.598;2024-01-11T01:35:01;101496.81;;;-5.30;100.00
8286;BME280;4181;43.416;24.598;2024-01-11T01:37:27;101492.28;;;-5.06;100.00
8286;BME280;4181;43.416;24.598;2024-01-11T01:39:52;101474.78;;;-4.97;100.00
8286;BME280;4181;43.416;24.598;2024-01-11T01:42:17;101466.16;;;-4.90;100.00
8286;BME280;4181;43.416;24.598;2024-01-11T01:44:43;101468.72;;;-4.88;100.00
8286;BME280;4181;43.416;24.598;2024-01-11T01:47:09;101466.78;;;-4.86;100.00
8286;BME280;4181;43.416;24.598;2024-01-11T01:49:37;101460.75;;;-4.77;100.00
8286;BME280;4181;43.416;24.598;2024-01-11T01:52:06;101462.44;;;-4.76;100.00
8286;BME280;4181;43.416;24.598;2024-01-11T01:54:33;101465.94;;;-4.98;100.00
8286;BME280;4181;43.416;24.598;2024-01-11T01:56:59;101462.66;;;-5.01;100.00
8286;BME280;4181;43.416;24.598;2024-01-11T01:59:26;101467.38;;;-4.94;100.00
8286;BME280;4181;43.416;24.598;2024-01-11T02:01:52;101455.28;;;-4.87;100.00
8286;BME280;4181;43.416;24.598;2024-01-11T02:04:19;101458.31;;;-4.91;100.00
8286;BME280;4181;43.416;24.598;2024-01-11T02:06:46;101451.41;;;-4.83;100.00
8286;BME280;4181;43.416;24.598;2024-01-11T02:09:13;101444.78;;;-4.77;100.00
8286;BME280;4181;43.416;24.598;2024-01-11T02:11:39;101441.72;;;-4.95;100.00
8286;BME280;4181;43.416;24.598;2024-01-11T02:14:07;101438.13;;;-4.83;100.00
8286;BME280;4181;43.416;24.598;2024-01-11T02:16:32;101458.78;;;-4.75;100.00
8286;BME280;4181;43.416;24.598;2024-01-11T02:18:57;101441.00;;;-4.75;100.00
8286;BME280;4181;43.416;24.598;2024-01-11T02:21:24;101434.13;;;-4.77;100.00
8286;BME280;4181;43.416;24.598;2024-01-11T02:24:06;101440.16;;;-4.86;100.00
8286;BME280;4181;43.416;24.598;2024-01-11T02:26:32;101445.59;;;-5.10;100.00
8286;BME280;4181;43.416;24.598;2024-01-11T02:28:59;101441.88;;;-5.07;100.00
8286;BME280;4181;43.416;24.598;2024-01-11T02:31:24;101448.00;;;-5.07;100.00
8286;BME280;4181;43.416;24.598;2024-01-11T02:33:53;101439.44;;;-4.99;100.00
8286;BME280;4181;43.416;24.598;2024-01-11T02:36:20;101437.38;;;-4.96;100.00
8286;BME280;4181;43.416;24.598;2024-01-11T02:38:46;101427.59;;;-4.84;100.00
8286;BME280;4181;43.416;24.598;2024-01-11T02:41:15;101435.56;;;-4.73;100.00
8286;BME280;4181;43.416;24.598;2024-01-11T02:43:46;101427.94;;;-4.78;100.00
8286;BME280;4181;43.416;24.598;2024-01-11T02:46:12;101423.13;;;-5.06;100.00
8286;BME280;4181;43.416;24.598;2024-01-11T02:48:38;101416.31;;;-4.99;100.00
8286;BME280;4181;43.416;24.598;2024-01-11T02:51:03;101426.47;;;-4.82;100.00
8286;BME280;4181;43.416;24.598;2024-01-11T02:53:29;101397.94;;;-5.02;100.00
8286;BME280;4181;43.416;24.598;2024-01-11T02:56:02;101411.75;;;-5.08;100.00
8286;BME280;4181;43.416;24.598;2024-01-11T02:58:27;101409.44;;;-5.01;100.00
8286;BME280;4181;43.416;24.598;2024-01-11T03:00:53;101424.56;;;-4.91;100.00
8286;BME280;4181;43.416;24.598;2024-01-11T03:03:18;101426.72;;;-5.07;100.00
8286;BME280;4181;43.416;24.598;2024-01-11T03:05:44;101421.91;;;-5.13;100.00
8286;BME280;4181;43.416;24.598;2024-01-11T03:08:09;101424.06;;;-5.07;100.00
8286;BME280;4181;43.416;24.598;2024-01-11T03:10:38;101412.44;;;-5.17;100.00
8286;BME280;4181;43.416;24.598;2024-01-11T03:13:05;101414.88;;;-5.25;100.00
8286;BME280;4181;43.416;24.598;2024-01-11T03:15:30;101423.56;;;-5.12;100.00
8286;BME280;4181;43.416;24.598;2024-01-11T03:17:56;101415.84;;;-5.04;100.00
8286;BME280;4181;43.416;24.598;2024-01-11T03:20:21;101414.75;;;-5.01;100.00
8286;BME280;4181;43.416;24.598;2024-01-11T03:22:50;101410.28;;;-5.01;100.00
8286;BME280;4181;43.416;24.598;2024-01-11T03:25:16;101402.53;;;-4.93;100.00
8286;BME280;4181;43.416;24.598;2024-01-11T03:27:42;101395.16;;;-5.00;100.00
8286;BME280;4181;43.416;24.598;2024-01-11T03:30:07;101405.19;;;-5.15;100.00
8286;BME280;4181;43.416;24.598;2024-01-11T03:32:35;101408.34;;;-5.21;100.00
8286;BME280;4181;43.416;24.598;2024-01-11T03:35:01;101396.28;;;-5.14;100.00
8286;BME280;4181;43.416;24.598;2024-01-11T03:37:26;101394.81;;;-5.18;100.00
8286;BME280;4181;43.416;24.598;2024-01-11T03:39:52;101395.28;;;-5.13;100.00
8286;BME280;4181;43.416;24.598;2024-01-11T03:42:17;101388.88;;;-5.22;100.00
8286;BME280;4181;43.416;24.598;2024-01-11T03:44:43;101392.38;;;-5.10;100.00
8286;BME280;4181;43.416;24.598;2024-01-11T03:47:08;101389.84;;;-5.00;100.00
8286;BME280;4181;43.416;24.598;2024-01-11T03:49:34;101387.44;;;-4.92;100.00
8286;BME280;4181;43.416;24.598;2024-01-11T03:51:59;101369.88;;;-4.95;100.00
8286;BME280;4181;43.416;24.598;2024-01-11T03:54:25;101366.97;;;-4.92;100.00
8286;BME280;4181;43.416;24.598;2024-01-11T03:56:50;101372.66;;;-4.96;100.00
8286;BME280;4181;43.416;24.598;2024-01-11T03:59:15;101363.34;;;-5.02;100.00
8286;BME280;4181;43.416;24.598;2024-01-11T04:01:42;101375.44;;;-5.53;100.00
8286;BME280;4181;43.416;24.598;2024-01-11T04:04:08;101362.50;;;-5.36;100.00
8286;BME280;4181;43.416;24.598;2024-01-11T04:06:33;101378.72;;;-5.17;100.00
8286;BME280;4181;43.416;24.598;2024-01-11T04:08:59;101364.59;;;-5.06;100.00
8286;BME280;4181;43.416;24.598;2024-01-11T04:11:28;101362.53;;;-5.02;100.00
8286;BME280;4181;43.416;24.598;2024-01-11T04:13:53;101361.19;;;-5.08;100.00
8286;BME280;4181;43.416;24.598;2024-01-11T04:16:20;101342.69;;;-5.09;100.00
8286;BME280;4181;43.416;24.598;2024-01-11T04:18:45;101351.88;;;-5.13;100.00
8286;BME280;4181;43.416;24.598;2024-01-11T04:21:24;101355.38;;;-5.02;100.00
8286;BME280;4181;43.416;24.598;2024-01-11T04:23:50;101356.38;;;-5.14;100.00
8286;BME280;4181;43.416;24.598;2024-01-11T04:26:16;101363.13;;;-5.10;100.00
8286;BME280;4181;43.416;24.598;2024-01-11T04:28:44;101358.63;;;-5.21;100.00
8286;BME280;4181;43.416;24.598;2024-01-11T04:31:10;101350.09;;;-5.24;100.00
8286;BME280;4181;43.416;24.598;2024-01-11T04:33:35;101342.44;;;-5.29;100.00
8286;BME280;4181;43.416;24.598;2024-01-11T04:36:01;101348.88;;;-5.31;100.00
8286;BME280;4181;43.416;24.598;2024-01-11T04:38:26;101355.63;;;-5.27;100.00
8286;BME280;4181;43.416;24.598;2024-01-11T04:40:51;101346.44;;;-5.56;100.00
8286;BME280;4181;43.416;24.598;2024-01-11T04:43:17;101362.25;;;-5.55;100.00
8286;BME280;4181;43.416;24.598;2024-01-11T04:45:42;101346.78;;;-5.39;100.00
8286;BME280;4181;43.416;24.598;2024-01-11T04:48:08;101362.28;;;-5.33;100.00
8286;BME280;4181;43.416;24.598;2024-01-11T04:50:33;101331.69;;;-5.49;100.00
8286;BME280;4181;43.416;24.598;2024-01-11T04:52:58;101342.31;;;-5.38;100.00
8286;BME280;4181;43.416;24.598;2024-01-11T04:55:24;101340.63;;;-5.61;100.00
8286;BME280;4181;43.416;24.598;2024-01-11T04:57:49;101329.75;;;-5.47;100.00
8286;BME280;4181;43.416;24.598;2024-01-11T05:00:15;101302.47;;;-5.49;100.00
8286;BME280;4181;43.416;24.598;2024-01-11T05:02:41;101324.44;;;-5.58;100.00
8286;BME280;4181;43.416;24.598;2024-01-11T05:05:06;101306.44;;;-5.88;100.00
8286;BME280;4181;43.416;24.598;2024-01-11T05:07:31;101335.78;;;-5.89;100.00
8286;BME280;4181;43.416;24.598;2024-01-11T05:09:57;101328.75;;;-5.79;100.00
8286;BME280;4181;43.416;24.598;2024-01-11T05:12:22;101331.56;;;-5.59;100.00
8286;BME280;4181;43.416;24.598;2024-01-11T05:15:06;101329.13;;;-5.51;100.00
8286;BME280;4181;43.416;24.598;2024-01-11T05:17:33;101326.13;;;-5.46;100.00
8286;BME280;4181;43.416;24.598;2024-01-11T05:19:58;101322.53;;;-5.34;100.00
8286;BME280;4181;43.416;24.598;2024-01-11T05:22:24;101325.41;;;-5.26;100.00
8286;BME280;4181;43.416;24.598;2024-01-11T05:24:49;101314.41;;;-5.22;100.00
8286;BME280;4181;43.416;24.598;2024-01-11T05:27:15;101310.88;;;-5.22;100.00
8286;BME280;4181;43.416;24.598;2024-01-11T05:29:40;101304.13;;;-5.26;100.00
8286;BME280;4181;43.416;24.598;2024-01-11T05:32:15;101301.97;;;-5.21;100.00
8286;BME280;4181;43.416;24.598;2024-01-11T05:34:40;101298.56;;;-5.23;100.00
8286;BME280;4181;43.416;24.598;2024-01-11T05:37:06;101298.31;;;-5.20;100.00
8286;BME280;4181;43.416;24.598;2024-01-11T05:39:31;101296.50;;;-5.20;100.00
8286;BME280;4181;43.416;24.598;2024-01-11T05:41:57;101290.22;;;-5.19;100.00
8286;BME280;4181;43.416;24.598;2024-01-11T05:44:22;101291.06;;;-5.18;100.00
8286;BME280;4181;43.416;24.598;2024-01-11T05:46:48;101293.34;;;-5.36;100.00
8286;BME280;4181;43.416;24.598;2024-01-11T05:49:13;101286.50;;;-5.38;100.00
8286;BME280;4181;43.416;24.598;2024-01-11T05:51:39;101268.13;;;-5.96;100.00
8286;BME280;4181;43.416;24.598;2024-01-11T05:54:04;101266.91;;;-5.70;100.00
8286;BME280;4181;43.416;24.598;2024-01-11T05:56:30;101275.00;;;-5.50;100.00
8286;BME280;4181;43.416;24.598;2024-01-11T05:58:55;101279.22;;;-5.25;100.00
8286;BME280;4181;43.416;24.598;2024-01-11T06:01:21;101267.00;;;-5.17;100.00
8286;BME280;4181;43.416;24.598;2024-01-11T06:03:47;101265.91;;;-5.14;100.00
8286;BME280;4181;43.416;24.598;2024-01-11T06:06:12;101272.41;;;-5.07;100.00
8286;BME280;4181;43.416;24.598;2024-01-11T06:08:38;101271.94;;;-5.01;100.00
8286;BME280;4181;43.416;24.598;2024-01-11T06:11:04;101265.84;;;-4.92;100.00
8286;BME280;4181;43.416;24.598;2024-01-11T06:13:29;101265.78;;;-4.70;100.00
8286;BME280;4181;43.416;24.598;2024-01-11T06:15:55;101253.22;;;-4.47;100.00
8286;BME280;4181;43.416;24.598;2024-01-11T06:18:20;101262.41;;;-4.20;100.00
8286;BME280;4181;43.416;24.598;2024-01-11T06:20:46;101241.72;;;-3.86;100.00
8286;BME280;4181;43.416;24.598;2024-01-11T06:23:11;101236.69;;;-3.49;100.00
8286;BME280;4181;43.416;24.598;2024-01-11T06:25:37;101220.84;;;-3.41;100.00
8286;BME280;4181;43.416;24.598;2024-01-11T06:28:03;101222.03;;;-3.15;100.00
8286;BME280;4181;43.416;24.598;2024-01-11T06:30:29;101229.41;;;-2.79;100.00
8286;BME280;4181;43.416;24.598;2024-01-11T06:32:55;101233.63;;;-2.48;100.00
8286;BME280;4181;43.416;24.598;2024-01-11T06:35:20;101211.22;;;-2.18;100.00
8286;BME280;4181;43.416;24.598;2024-01-11T06:37:46;101204.56;;;-1.86;100.00
8286;BME280;4181;43.416;24.598;2024-01-11T06:40:11;101219.97;;;-1.70;100.00
8286;BME280;4181;43.416;24.598;2024-01-11T06:42:37;101212.28;;;-1.46;100.00
8286;BME280;4181;43.416;24.598;2024-01-11T06:45:02;101214.34;;;-1.13;100.00
8286;BME280;4181;43.416;24.598;2024-01-11T06:47:28;101183.53;;;-0.99;100.00
8286;BME280;4181;43.416;24.598;2024-01-11T06:49:57;101207.13;;;-0.85;100.00
8286;BME280;4181;43.416;24.598;2024-01-11T06:52:22;101197.56;;;-0.70;100.00
8286;BME280;4181;43.416;24.598;2024-01-11T06:54:48;101186.34;;;-0.48;100.00
8286;BME280;4181;43.416;24.598;2024-01-11T06:57:13;101186.81;;;-0.53;100.00
8286;BME280;4181;43.416;24.598;2024-01-11T06:59:39;101188.13;;;-0.39;100.00
8286;BME280;4181;43.416;24.598;2024-01-11T07:02:04;101191.81;;;-0.15;100.00
8286;BME280;4181;43.416;24.598;2024-01-11T07:04:29;101207.28;;;0.17;100.00
8286;BME280;4181;43.416;24.598;2024-01-11T07:06:55;101179.09;;;0.13;100.00
8286;BME280;4181;43.416;24.598;2024-01-11T07:09:20;101190.06;;;0.53;100.00
8286;BME280;4181;43.416;24.598;2024-01-11T07:11:46;101177.03;;;0.74;100.00
8286;BME280;4181;43.416;24.598;2024-01-11T07:14:11;101178.41;;;0.86;100.00
8286;BME280;4181;43.416;24.598;2024-01-11T07:16:37;101162.84;;;1.06;100.00
8286;BME280;4181;43.416;24.598;2024-01-11T07:19:02;101179.31;;;1.19;100.00
8286;BME280;4181;43.416;24.598;2024-01-11T07:21:28;101179.84;;;1.22;100.00
8286;BME280;4181;43.416;24.598;2024-01-11T07:24:00;101171.63;;;1.40;100.00
8286;BME280;4181;43.416;24.598;2024-01-11T07:26:25;101161.69;;;1.33;100.00
8286;BME280;4181;43.416;24.598;2024-01-11T07:28:51;101160.38;;;1.45;100.00
8286;BME280;4181;43.416;24.598;2024-01-11T07:31:17;101159.03;;;1.65;100.00
8286;BME280;4181;43.416;24.598;2024-01-11T07:33:43;101157.84;;;1.83;100.00
8286;BME280;4181;43.416;24.598;2024-01-11T07:36:08;101157.28;;;2.12;100.00
8286;BME280;4181;43.416;24.598;2024-01-11T07:38:34;101157.56;;;2.25;100.00
8286;BME280;4181;43.416;24.598;2024-01-11T07:41:00;101150.16;;;2.27;100.00
8286;BME280;4181;43.416;24.598;2024-01-11T07:43:27;101152.47;;;2.38;100.00
8286;BME280;4181;43.416;24.598;2024-01-11T07:45:54;101142.16;;;2.49;100.00
8286;BME280;4181;43.416;24.598;2024-01-11T07:48:22;101132.16;;;2.66;100.00
8286;BME280;4181;43.416;24.598;2024-01-11T07:50:48;101139.94;;;2.92;100.00
8286;BME280;4181;43.416;24.598;2024-01-11T07:53:14;101126.34;;;3.08;100.00
8286;BME280;4181;43.416;24.598;2024-01-11T07:55:41;101114.69;;;3.15;100.00
8286;BME280;4181;43.416;24.598;2024-01-11T07:58:07;101126.00;;;3.33;100.00
8286;BME280;4181;43.416;24.598;2024-01-11T08:00:32;101115.00;;;3.57;100.00
8286;BME280;4181;43.416;24.598;2024-01-11T08:02:58;101117.25;;;3.68;100.00
8286;BME280;4181;43.416;24.598;2024-01-11T08:05:23;101117.84;;;3.93;100.00
8286;BME280;4181;43.416;24.598;2024-01-11T08:07:48;101097.56;;;4.12;100.00
8286;BME280;4181;43.416;24.598;2024-01-11T08:10:15;101104.84;;;4.40;100.00
8286;BME280;4181;43.416;24.598;2024-01-11T08:12:40;101103.41;;;4.59;100.00
8286;BME280;4181;43.416;24.598;2024-01-11T08:15:06;101113.13;;;4.89;100.00
8286;BME280;4181;43.416;24.598;2024-01-11T08:17:31;101104.06;;;5.17;100.00
8286;BME280;4181;43.416;24.598;2024-01-11T08:19:57;101106.72;;;5.32;100.00
8286;BME280;4181;43.416;24.598;2024-01-11T08:22:23;101110.69;;;5.15;100.00
8286;BME280;4181;43.416;24.598;2024-01-11T08:24:48;101123.06;;;5.24;100.00
8286;BME280;4181;43.416;24.598;2024-01-11T08:27:14;101118.16;;;5.34;100.00
8286;BME280;4181;43.416;24.598;2024-01-11T08:29:42;101107.44;;;5.41;100.00
8286;BME280;4181;43.416;24.598;2024-01-11T08:32:08;101112.91;;;5.47;100.00
8286;BME280;4181;43.416;24.598;2024-01-11T08:34:34;101106.81;;;5.66;100.00
8286;BME280;4181;43.416;24.598;2024-01-11T08:36:59;101096.59;;;5.89;100.00
8286;BME280;4181;43.416;24.598;2024-01-11T08:39:25;101104.31;;;6.20;100.00
8286;BME280;4181;43.416;24.598;2024-01-11T08:41:50;101093.19;;;6.43;100.00
8286;BME280;4181;43.416;24.598;2024-01-11T08:44:17;101104.13;;;6.69;100.00
8286;BME280;4181;43.416;24.598;2024-01-11T08:46:43;101091.91;;;6.86;100.00
8286;BME280;4181;43.416;24.598;2024-01-11T08:49:09;101090.31;;;7.11;100.00
8286;BME280;4181;43.416;24.598;2024-01-11T08:51:34;101076.50;;;7.06;100.00
8286;BME280;4181;43.416;24.598;2024-01-11T08:54:00;101083.81;;;7.18;100.00
8286;BME280;4181;43.416;24.598;2024-01-11T08:56:25;101075.91;;;7.43;100.00
8286;BME280;4181;43.416;24.598;2024-01-11T08:58:51;101057.31;;;7.53;100.00
8286;BME280;4181;43.416;24.598;2024-01-11T09:01:16;101065.69;;;7.64;100.00
8286;BME280;4181;43.416;24.598;2024-01-11T09:03:43;101074.69;;;7.58;100.00
8286;BME280;4181;43.416;24.598;2024-01-11T09:06:08;101058.97;;;7.87;100.00
8286;BME280;4181;43.416;24.598;2024-01-11T09:08:34;101067.50;;;8.03;100.00
8286;BME280;4181;43.416;24.598;2024-01-11T09:11:00;101066.50;;;7.71;100.00
8286;BME280;4181;43.416;24.598;2024-01-11T09:13:28;101056.09;;;7.62;100.00
8286;BME280;4181;43.416;24.598;2024-01-11T09:15:54;101053.78;;;7.72;100.00
8286;BME280;4181;43.416;24.598;2024-01-11T09:18:20;101052.50;;;7.74;100.00
8286;BME280;4181;43.416;24.598;2024-01-11T09:20:46;101042.91;;;7.79;100.00
8286;BME280;4181;43.416;24.598;2024-01-11T09:23:13;101037.91;;;7.76;100.00
8286;BME280;4181;43.416;24.598;2024-01-11T09:25:38;101035.09;;;8.08;100.00
8286;BME280;4181;43.416;24.598;2024-01-11T09:28:04;101013.91;;;8.36;100.00
8286;BME280;4181;43.416;24.598;2024-01-11T09:30:30;101022.06;;;8.36;100.00
8286;BME280;4181;43.416;24.598;2024-01-11T09:32:55;101014.31;;;8.40;100.00
8286;BME280;4181;43.416;24.598;2024-01-11T09:35:24;101024.38;;;8.39;100.00
8286;BME280;4181;43.416;24.598;2024-01-11T09:37:50;101017.22;;;8.45;100.00
8286;BME280;4181;43.416;24.598;2024-01-11T09:40:17;101006.56;;;8.43;100.00
8286;BME280;4181;43.416;24.598;2024-01-11T09:42:42;101009.47;;;8.48;100.00
8286;BME280;4181;43.416;24.598;2024-01-11T09:45:17;101013.06;;;8.42;100.00
8286;BME280;4181;43.416;24.598;2024-01-11T09:47:44;101002.25;;;8.29;100.00
8286;BME280;4181;43.416;24.598;2024-01-11T09:50:11;100991.44;;;8.60;100.00
8286;BME280;4181;43.416;24.598;2024-01-11T09:52:45;100979.84;;;8.71;100.00
8286;BME280;4181;43.416;24.598;2024-01-11T09:55:13;100976.91;;;8.73;100.00
8286;BME280;4181;43.416;24.598;2024-01-11T09:57:41;100976.75;;;8.17;100.00
8286;BME280;4181;43.416;24.598;2024-01-11T10:00:09;100977.97;;;8.34;100.00
8286;BME280;4181;43.416;24.598;2024-01-11T10:02:38;100959.81;;;8.66;100.00
8286;BME280;4181;43.416;24.598;2024-01-11T10:05:04;100959.06;;;9.08;100.00
8286;BME280;4181;43.416;24.598;2024-01-11T10:07:31;100958.81;;;8.85;100.00
8286;BME280;4181;43.416;24.598;2024-01-11T10:09:58;100948.09;;;8.28;100.00
8286;BME280;4181;43.416;24.598;2024-01-11T10:12:24;100952.28;;;8.17;100.00
8286;BME280;4181;43.416;24.598;2024-01-11T10:14:54;100950.13;;;7.75;100.00
8286;BME280;4181;43.416;24.598;2024-01-11T10:17:19;100938.75;;;8.04;100.00
8286;BME280;4181;43.416;24.598;2024-01-11T10:19:45;100916.69;;;8.32;100.00
8286;BME280;4181;43.416;24.598;2024-01-11T10:22:11;100914.13;;;8.74;100.00
8286;BME280;4181;43.416;24.598;2024-01-11T10:24:41;100917.03;;;9.04;100.00
8286;BME280;4181;43.416;24.598;2024-01-11T10:27:08;100915.91;;;8.87;100.00
8286;BME280;4181;43.416;24.598;2024-01-11T10:29:35;100910.22;;;8.88;100.00
8286;BME280;4181;43.416;24.598;2024-01-11T10:32:04;100921.13;;;8.88;100.00
8286;BME280;4181;43.416;24.598;2024-01-11T10:34:30;100921.53;;;8.23;100.00
8286;BME280;4181;43.416;24.598;2024-01-11T10:36:56;100911.25;;;8.63;100.00
8286;BME280;4181;43.416;24.598;2024-01-11T10:39:24;100921.03;;;6.86;100.00
8286;BME280;4181;43.416;24.598;2024-01-11T10:42:09;100914.91;;;6.51;100.00
8286;BME280;4181;43.416;24.598;2024-01-11T10:44:37;100909.28;;;6.46;100.00
8286;BME280;4181;43.416;24.598;2024-01-11T10:47:18;100912.44;;;5.89;100.00
8286;BME280;4181;43.416;24.598;2024-01-11T10:49:44;100899.22;;;6.14;100.00
8286;BME280;4181;43.416;24.598;2024-01-11T10:52:14;100879.69;;;7.03;100.00
8286;BME280;4181;43.416;24.598;2024-01-11T10:54:42;100897.59;;;6.32;100.00
8286;BME280;4181;43.416;24.598;2024-01-11T10:57:08;100867.66;;;5.93;100.00
8286;BME280;4181;43.416;24.598;2024-01-11T10:59:36;100879.69;;;6.84;100.00
8286;BME280;4181;43.416;24.598;2024-01-11T11:02:04;100875.94;;;6.46;100.00
8286;BME280;4181;43.416;24.598;2024-01-11T11:04:32;100862.59;;;6.57;100.00
8286;BME280;4181;43.416;24.598;2024-01-11T11:07:00;100841.09;;;6.69;100.00
8286;BME280;4181;43.416;24.598;2024-01-11T11:09:26;100855.28;;;6.58;100.00
8286;BME280;4181;43.416;24.598;2024-01-11T11:11:55;100840.25;;;6.29;100.00
8286;BME280;4181;43.416;24.598;2024-01-11T11:14:22;100829.41;;;6.88;100.00
8286;BME280;4181;43.416;24.598;2024-01-11T11:16:48;100831.91;;;6.96;100.00
8286;BME280;4181;43.416;24.598;2024-01-11T11:19:14;100829.84;;;6.39;100.00
8286;BME280;4181;43.416;24.598;2024-01-11T11:21:47;100832.13;;;7.01;100.00
8286;BME280;4181;43.416;24.598;2024-01-11T11:24:12;100816.50;;;6.37;100.00
8286;BME280;4181;43.416;24.598;2024-01-11T11:26:38;100812.22;;;5.89;100.00
8286;BME280;4181;43.416;24.598;2024-01-11T11:29:04;100820.25;;;5.63;100.00
8286;BME280;4181;43.416;24.598;2024-01-11T11:31:45;100813.75;;;6.18;100.00
8286;BME280;4181;43.416;24.598;2024-01-11T11:34:13;100802.50;;;6.14;100.00
8286;BME280;4181;43.416;24.598;2024-01-11T11:36:40;100799.81;;;6.40;100.00
8286;BME280;4181;43.416;24.598;2024-01-11T11:39:10;100777.84;;;6.88;100.00
8286;BME280;4181;43.416;24.598;2024-01-11T11:41:37;100781.88;;;6.13;100.00
8286;BME280;4181;43.416;24.598;2024-01-11T11:44:07;100778.56;;;5.51;100.00
8286;BME280;4181;43.416;24.598;2024-01-11T11:46:32;100772.81;;;5.74;100.00
8286;BME280;4181;43.416;24.598;2024-01-11T11:48:58;100762.78;;;5.68;100.00
8286;BME280;4181;43.416;24.598;2024-01-11T11:51:24;100770.38;;;5.92;100.00
8286;BME280;4181;43.416;24.598;2024-01-11T11:53:51;100752.91;;;6.07;100.00
8286;BME280;4181;43.416;24.598;2024-01-11T11:56:21;100757.06;;;6.16;100.00
8286;BME280;4181;43.416;24.598;2024-01-11T11:58:48;100750.38;;;6.06;100.00
8286;BME280;4181;43.416;24.598;2024-01-11T12:01:18;100742.28;;;6.12;100.00
8286;BME280;4181;43.416;24.598;2024-01-11T12:03:45;100753.72;;;6.14;100.00
8286;BME280;4181;43.416;24.598;2024-01-11T12:06:21;100747.50;;;6.33;100.00
8286;BME280;4181;43.416;24.598;2024-01-11T12:08:52;100747.25;;;5.89;100.00
8286;BME280;4181;43.416;24.598;2024-01-11T12:11:19;100736.13;;;5.71;100.00
8286;BME280;4181;43.416;24.598;2024-01-11T12:13:46;100739.28;;;5.14;100.00
8286;BME280;4181;43.416;24.598;2024-01-11T12:16:12;100722.81;;;5.70;100.00
8286;BME280;4181;43.416;24.598;2024-01-11T12:18:38;100723.50;;;5.91;100.00
8286;BME280;4181;43.416;24.598;2024-01-11T12:21:04;100697.25;;;5.92;100.00
8286;BME280;4181;43.416;24.598;2024-01-11T12:23:29;100723.41;;;5.52;100.00
8286;BME280;4181;43.416;24.598;2024-01-11T12:26:00;100712.94;;;5.36;100.00
8286;BME280;4181;43.416;24.598;2024-01-11T12:28:26;100691.47;;;5.28;100.00
8286;BME280;4181;43.416;24.598;2024-01-11T12:30:51;100690.25;;;5.31;100.00
8286;BME280;4181;43.416;24.598;2024-01-11T12:33:18;100696.16;;;5.73;100.00
8286;BME280;4181;43.416;24.598;2024-01-11T12:35:44;100679.81;;;5.21;100.00
8286;BME280;4181;43.416;24.598;2024-01-11T12:38:10;100699.75;;;5.07;100.00
8286;BME280;4181;43.416;24.598;2024-01-11T12:40:36;100689.81;;;5.27;100.00
8286;BME280;4181;43.416;24.598;2024-01-11T12:43:06;100684.03;;;5.37;100.00
8286;BME280;4181;43.416;24.598;2024-01-11T12:45:33;100682.50;;;5.21;100.00
8286;BME280;4181;43.416;24.598;2024-01-11T12:47:59;100679.09;;;5.79;100.00
8286;BME280;4181;43.416;24.598;2024-01-11T12:50:26;100675.72;;;5.58;100.00
8286;BME280;4181;43.416;24.598;2024-01-11T12:53:12;100679.34;;;5.11;100.00
8286;BME280;4181;43.416;24.598;2024-01-11T12:56:05;100669.41;;;5.18;100.00